This is the latest recevied weather packets stored in our database for station/object EA5GK-10. If no packets are shown the sender has not sent any weather packets the latest 10 day(s).
| Time | Temp. | Humidity | Pressure | Rain* | Wind** | Luminosity | Snow |
|---|---|---|---|---|---|---|---|
| 1777545918 | 22.22° C | 49% | 1017.3 hPa | - | - | - | - |
| 1777545018 | 21.67° C | 50% | 1017.4 hPa | - | - | - | - |
| 1777544118 | 21.67° C | 51% | 1017.6 hPa | - | - | - | - |
| 1777543218 | 21.11° C | 52% | 1017.6 hPa | - | - | - | - |
| 1777542318 | 20.56° C | 53% | 1017.8 hPa | - | - | - | - |
| 1777541417 | 20° C | 52% | 1018 hPa | - | - | - | - |
| 1777540517 | 19.44° C | 52% | 1018.1 hPa | - | - | - | - |
| 1777539617 | 19.44° C | 52% | 1018.1 hPa | - | - | - | - |
| 1777538717 | 19.44° C | 52% | 1018.1 hPa | - | - | - | - |
| 1777537817 | 19.44° C | 52% | 1018.1 hPa | - | - | - | - |
| 1777536917 | 19.44° C | 52% | 1018 hPa | - | - | - | - |
| 1777536017 | 19.44° C | 52% | 1018.1 hPa | - | - | - | - |
| 1777535117 | 19.44° C | 53% | 1018 hPa | - | - | - | - |
| 1777534216 | 19.44° C | 53% | 1017.9 hPa | - | - | - | - |
| 1777533316 | 19.44° C | 53% | 1017.8 hPa | - | - | - | - |
| 1777532416 | 19.44° C | 53% | 1017.5 hPa | - | - | - | - |
| 1777531516 | 19.44° C | 53% | 1017.4 hPa | - | - | - | - |
| 1777530616 | 19.44° C | 55% | 1017.4 hPa | - | - | - | - |
| 1777529716 | 20° C | 51% | 1017.3 hPa | - | - | - | - |
| 1777528815 | 20° C | 50% | 1017.2 hPa | - | - | - | - |
| 1777527915 | 20° C | 51% | 1017 hPa | - | - | - | - |
| 1777527015 | 20° C | 50% | 1016.9 hPa | - | - | - | - |
| 1777526115 | 20° C | 50% | 1016.8 hPa | - | - | - | - |
| 1777525215 | 20° C | 50% | 1016.6 hPa | - | - | - | - |
| 1777524315 | 20° C | 51% | 1016.5 hPa | - | - | - | - |
* Rain since midnight (hover to see other rain measurements)
** Current wind speed in m/s (hover to see current wind gust speed)